Time;durP1;ratioP1;P1;durP2;ratioP2;P2;SDS_P1;SDS_P2;PMS_P1;PMS_P2;Temp;Humidity;BMP_temperature;BMP_pressure;BME280_temperature;BME280_humidity;BME280_pressure;Samples;Min_cycle;Max_cycle;Signal;HPM_P1;HPM_P2
2021/12/15 00:00:15;;;;;;;54.72;17.50;;;;;;;;;;5024454;28;20032;-75
2021/12/15 00:02:44;;;;;;;47.63;17.15;;;;;;;;;;5041307;28;20501;-76
2021/12/15 00:05:11;;;;;;;53.20;17.92;;;;;;;;;;5023297;28;20156;-75
2021/12/15 00:07:37;;;;;;;54.15;18.83;;;;;;;;;;5023607;28;20072;-76
2021/12/15 00:10:05;;;;;;;49.60;16.83;;;;;;;;;;5040820;28;21050;-77
2021/12/15 00:12:31;;;;;;;53.65;17.13;;;;;;;;;;5023205;28;20075;-76
2021/12/15 00:14:57;;;;;;;50.83;18.35;;;;;;;;;;5023413;28;20248;-76
2021/12/15 00:17:23;;;;;;;45.97;16.67;;;;;;;;;;5024539;28;20044;-76
2021/12/15 00:19:50;;;;;;;46.13;16.65;;;;;;;;;;5022476;28;20051;-75
2021/12/15 00:22:16;;;;;;;47.08;17.33;;;;;;;;;;5039590;28;20043;-76
2021/12/15 00:24:42;;;;;;;53.78;18.20;;;;;;;;;;5023915;28;20067;-76
2021/12/15 00:27:08;;;;;;;52.15;19.15;;;;;;;;;;5025353;28;20504;-76
2021/12/15 00:29:34;;;;;;;51.17;18.00;;;;;;;;;;5026633;28;20040;-76
2021/12/15 00:32:03;;;;;;;50.97;17.27;;;;;;;;;;5027275;28;20473;-76
2021/12/15 00:34:30;;;;;;;50.40;16.98;;;;;;;;;;5042357;28;20049;-75
2021/12/15 00:36:56;;;;;;;53.38;18.77;;;;;;;;;;5043293;28;20044;-76
2021/12/15 00:39:22;;;;;;;46.35;17.30;;;;;;;;;;5043636;28;20484;-74
2021/12/15 00:41:48;;;;;;;55.65;18.33;;;;;;;;;;5041836;28;20033;-72
2021/12/15 00:44:14;;;;;;;58.13;19.00;;;;;;;;;;5026129;28;20035;-76
2021/12/15 00:46:41;;;;;;;63.42;20.00;;;;;;;;;;5043104;28;20045;-75
2021/12/15 00:49:08;;;;;;;49.50;18.33;;;;;;;;;;5041235;28;20045;-75
2021/12/15 00:51:36;;;;;;;49.75;18.17;;;;;;;;;;5042525;28;20116;-76
2021/12/15 00:54:02;;;;;;;54.90;17.92;;;;;;;;;;5043228;28;20051;-77
2021/12/15 00:56:28;;;;;;;48.38;18.05;;;;;;;;;;5041314;28;20420;-76
2021/12/15 00:58:54;;;;;;;52.15;18.98;;;;;;;;;;5042475;28;20086;-75
2021/12/15 01:01:20;;;;;;;52.60;18.02;;;;;;;;;;5026631;28;20068;-76
2021/12/15 01:03:47;;;;;;;50.10;17.77;;;;;;;;;;5041380;28;20123;-75
2021/12/15 01:06:16;;;;;;;48.15;16.52;;;;;;;;;;5042763;28;20055;-75
2021/12/15 01:08:46;;;;;;;45.20;17.52;;;;;;;;;;5026558;28;20078;-76
2021/12/15 01:11:23;;;;;;;44.88;15.82;;;;;;;;;;5025425;28;20499;-76
2021/12/15 01:22:07;;;;;;;48.85;16.63;;;;;;;;;;5042915;28;20040;-76
2021/12/15 01:24:33;;;;;;;47.88;17.15;;;;;;;;;;5024715;28;20485;-76
2021/12/15 01:26:59;;;;;;;42.47;16.92;;;;;;;;;;5024972;28;20033;-75
2021/12/15 01:29:25;;;;;;;46.85;17.30;;;;;;;;;;5043213;28;20447;-76
2021/12/15 01:31:51;;;;;;;45.08;17.05;;;;;;;;;;5041508;28;20087;-76
2021/12/15 01:34:17;;;;;;;48.55;17.33;;;;;;;;;;5025303;28;20075;-76
2021/12/15 01:36:43;;;;;;;49.28;16.35;;;;;;;;;;5026427;28;20044;-75
2021/12/15 01:39:09;;;;;;;44.97;16.92;;;;;;;;;;5024441;28;20041;-77
2021/12/15 01:41:36;;;;;;;47.70;17.20;;;;;;;;;;5041632;28;20452;-77
2021/12/15 01:49:21;;;;;;;39.72;16.20;;;;;;;;;;5042239;28;20037;-77
2021/12/15 01:51:47;;;;;;;43.97;16.17;;;;;;;;;;5024087;28;20408;-76
2021/12/15 01:54:14;;;;;;;48.83;17.05;;;;;;;;;;5025679;28;20036;-76
2021/12/15 01:56:40;;;;;;;40.40;15.40;;;;;;;;;;5025752;28;20467;-75
2021/12/15 01:59:06;;;;;;;46.35;16.00;;;;;;;;;;5040634;28;20473;-77
2021/12/15 02:01:32;;;;;;;40.47;15.45;;;;;;;;;;5025771;28;20055;-76
2021/12/15 02:03:58;;;;;;;38.92;14.40;;;;;;;;;;5026619;28;20119;-75
2021/12/15 02:06:25;;;;;;;45.53;16.67;;;;;;;;;;5028049;28;20379;-74
2021/12/15 02:08:52;;;;;;;44.92;17.05;;;;;;;;;;5046528;28;20040;-74
2021/12/15 02:11:18;;;;;;;45.08;17.42;;;;;;;;;;5045978;28;20041;-75
2021/12/15 02:13:44;;;;;;;47.53;16.92;;;;;;;;;;5027895;28;20066;-76
2021/12/15 02:16:11;;;;;;;51.53;16.02;;;;;;;;;;5046461;28;20036;-76
2021/12/15 02:18:41;;;;;;;42.92;16.52;;;;;;;;;;5028876;28;20138;-74
2021/12/15 02:21:12;;;;;;;39.55;16.05;;;;;;;;;;5028012;28;20098;-75
2021/12/15 02:23:43;;;;;;;47.33;15.90;;;;;;;;;;5044849;28;20056;-76
2021/12/15 02:26:13;;;;;;;46.65;16.80;;;;;;;;;;5027779;28;20151;-75
2021/12/15 02:28:40;;;;;;;47.83;17.10;;;;;;;;;;5044821;28;20067;-75
2021/12/15 02:33:50;;;;;;;45.38;15.98;;;;;;;;;;5044557;28;20219;-75
2021/12/15 02:39:06;;;;;;;42.47;16.58;;;;;;;;;;5045840;28;20509;-76
2021/12/15 02:41:32;;;;;;;46.90;16.67;;;;;;;;;;5027912;28;20045;-76
2021/12/15 02:44:00;;;;;;;48.30;17.27;;;;;;;;;;5028343;28;20123;-75
2021/12/15 02:46:26;;;;;;;50.70;16.65;;;;;;;;;;5029511;28;20130;-74
2021/12/15 02:48:53;;;;;;;50.78;17.85;;;;;;;;;;5028260;28;20044;-74
2021/12/15 02:51:19;;;;;;;46.80;16.20;;;;;;;;;;5028245;28;20036;-76
2021/12/15 02:53:45;;;;;;;49.85;18.65;;;;;;;;;;5029158;28;20089;-76
2021/12/15 02:56:12;;;;;;;51.42;18.45;;;;;;;;;;5044417;28;20477;-76
2021/12/15 02:58:47;;;;;;;41.33;16.48;;;;;;;;;;5028209;28;20135;-76
2021/12/15 03:01:19;;;;;;;51.45;18.30;;;;;;;;;;5028239;28;20041;-75
2021/12/15 03:06:31;;;;;;;45.13;16.65;;;;;;;;;;5045026;28;20128;-74
2021/12/15 03:09:27;;;;;;;48.28;18.08;;;;;;;;;;5045364;28;20033;-75
2021/12/15 03:17:13;;;;;;;47.28;16.20;;;;;;;;;;5045592;28;20075;-76
2021/12/15 03:19:39;;;;;;;49.88;18.50;;;;;;;;;;5051323;28;20055;-76
2021/12/15 03:22:05;;;;;;;46.78;17.55;;;;;;;;;;5052437;28;20051;-76
2021/12/15 03:24:31;;;;;;;52.40;18.88;;;;;;;;;;5048817;28;20049;-75
2021/12/15 03:27:03;;;;;;;50.35;19.13;;;;;;;;;;5032303;28;20068;-76
2021/12/15 03:35:06;;;;;;;54.38;17.63;;;;;;;;;;5048945;28;20063;-76
2021/12/15 03:37:34;;;;;;;52.60;18.85;;;;;;;;;;5047893;28;20080;-76
2021/12/15 03:40:07;;;;;;;48.60;18.20;;;;;;;;;;5048667;28;20041;-76
2021/12/15 03:42:35;;;;;;;57.63;19.73;;;;;;;;;;5032312;28;20048;-75
2021/12/15 03:45:04;;;;;;;52.33;18.52;;;;;;;;;;5051848;28;20041;-76
2021/12/15 03:47:32;;;;;;;53.75;16.73;;;;;;;;;;5051903;28;20079;-77
2021/12/15 03:49:59;;;;;;;53.65;18.33;;;;;;;;;;5051827;28;20037;-76
2021/12/15 03:52:26;;;;;;;52.67;18.30;;;;;;;;;;5052064;28;20048;-75
2021/12/15 03:54:52;;;;;;;47.38;18.08;;;;;;;;;;5035670;28;20048;-76
2021/12/15 03:57:19;;;;;;;54.90;17.25;;;;;;;;;;5051851;28;20041;-76
2021/12/15 03:59:45;;;;;;;47.88;18.35;;;;;;;;;;5035229;28;20049;-75
2021/12/15 04:02:13;;;;;;;57.08;18.58;;;;;;;;;;5052106;28;20546;-77
2021/12/15 04:04:40;;;;;;;52.47;18.38;;;;;;;;;;5035006;28;20060;-76
2021/12/15 04:07:06;;;;;;;53.85;20.05;;;;;;;;;;5035116;28;20041;-76
2021/12/15 04:09:32;;;;;;;57.25;18.98;;;;;;;;;;5034999;28;20037;-76
2021/12/15 04:12:00;;;;;;;59.72;19.52;;;;;;;;;;5035371;28;20473;-76
2021/12/15 04:14:31;;;;;;;56.45;19.17;;;;;;;;;;5035233;28;20544;-73
2021/12/15 04:17:04;;;;;;;55.63;18.50;;;;;;;;;;5051591;28;20049;-75
2021/12/15 04:19:30;;;;;;;59.70;19.48;;;;;;;;;;5051770;28;20045;-75
2021/12/15 04:21:56;;;;;;;56.90;18.77;;;;;;;;;;5051399;28;20048;-76
2021/12/15 04:24:24;;;;;;;60.17;20.75;;;;;;;;;;5034617;28;20057;-76
2021/12/15 04:26:50;;;;;;;61.03;19.55;;;;;;;;;;5051074;28;20488;-76
2021/12/15 04:29:16;;;;;;;56.78;18.92;;;;;;;;;;5051284;28;20148;-76
2021/12/15 04:31:57;;;;;;;56.95;18.75;;;;;;;;;;5051313;28;20465;-76
2021/12/15 04:34:23;;;;;;;58.80;20.27;;;;;;;;;;5034778;28;20041;-76
2021/12/15 04:36:51;;;;;;;55.33;17.75;;;;;;;;;;5034593;28;20106;-75
2021/12/15 04:39:19;;;;;;;57.15;19.95;;;;;;;;;;5032577;28;20051;-75
2021/12/15 04:41:48;;;;;;;54.35;19.58;;;;;;;;;;5050868;28;20041;-75
2021/12/15 04:44:15;;;;;;;57.20;20.85;;;;;;;;;;5050652;28;20466;-75
2021/12/15 04:46:46;;;;;;;59.03;20.95;;;;;;;;;;5050864;28;20041;-76
2021/12/15 04:49:12;;;;;;;52.10;19.30;;;;;;;;;;5034457;28;20072;-74
2021/12/15 04:51:38;;;;;;;67.05;20.58;;;;;;;;;;5050972;28;20040;-72
2021/12/15 04:54:05;;;;;;;57.78;20.88;;;;;;;;;;5034205;28;20049;-76
2021/12/15 04:56:31;;;;;;;57.47;18.25;;;;;;;;;;5034440;28;20134;-73
2021/12/15 04:58:57;;;;;;;59.97;19.58;;;;;;;;;;5034092;28;20043;-75
2021/12/15 05:01:24;;;;;;;54.55;21.02;;;;;;;;;;5034218;28;20041;-75
2021/12/15 05:03:50;;;;;;;57.28;18.45;;;;;;;;;;5050940;28;20677;-76
2021/12/15 05:06:16;;;;;;;58.90;20.77;;;;;;;;;;5034303;28;20045;-75
2021/12/15 05:08:42;;;;;;;60.13;21.05;;;;;;;;;;5033854;28;20135;-75
2021/12/15 05:11:09;;;;;;;59.08;21.83;;;;;;;;;;5050473;28;20065;-74
2021/12/15 05:13:36;;;;;;;53.10;19.77;;;;;;;;;;5050385;28;20072;-74
2021/12/15 05:16:03;;;;;;;57.40;20.30;;;;;;;;;;5034178;28;20500;-73
2021/12/15 05:18:29;;;;;;;56.55;20.83;;;;;;;;;;5050401;28;20087;-75
2021/12/15 05:20:55;;;;;;;61.20;21.45;;;;;;;;;;5033782;28;20041;-75
2021/12/15 05:23:27;;;;;;;53.72;18.88;;;;;;;;;;5035672;28;20477;-75
2021/12/15 05:25:53;;;;;;;57.25;19.25;;;;;;;;;;5053615;28;20080;-74
2021/12/15 05:28:19;;;;;;;57.50;20.50;;;;;;;;;;5036943;28;20075;-75
2021/12/15 05:30:46;;;;;;;64.88;21.58;;;;;;;;;;5053488;28;20090;-75
2021/12/15 05:33:11;;;;;;;63.22;22.52;;;;;;;;;;5037214;28;20043;-75
2021/12/15 05:35:38;;;;;;;61.60;21.48;;;;;;;;;;5053870;28;20393;-75
2021/12/15 05:38:04;;;;;;;63.00;21.75;;;;;;;;;;5036043;28;20037;-75
2021/12/15 05:40:31;;;;;;;59.42;21.23;;;;;;;;;;5053018;28;20442;-75
2021/12/15 05:42:57;;;;;;;58.78;20.90;;;;;;;;;;5036609;28;20419;-75
2021/12/15 05:45:25;;;;;;;55.05;19.95;;;;;;;;;;5036511;28;20041;-76
2021/12/15 05:47:51;;;;;;;64.32;21.42;;;;;;;;;;5036988;28;20036;-76
2021/12/15 05:50:17;;;;;;;57.05;20.83;;;;;;;;;;5053191;28;20037;-77
2021/12/15 05:52:43;;;;;;;60.10;20.50;;;;;;;;;;5036705;28;20124;-76
2021/12/15 05:55:11;;;;;;;63.75;19.85;;;;;;;;;;5053246;28;20138;-75
2021/12/15 05:57:37;;;;;;;64.28;21.35;;;;;;;;;;5036818;28;20101;-76
2021/12/15 06:00:08;;;;;;;59.83;21.70;;;;;;;;;;5053101;28;20040;-76
2021/12/15 06:02:34;;;;;;;64.97;22.05;;;;;;;;;;5036668;28;20079;-75
2021/12/15 06:05:00;;;;;;;61.60;20.00;;;;;;;;;;5036700;28;20072;-76
2021/12/15 06:07:26;;;;;;;64.00;23.15;;;;;;;;;;5053275;28;20091;-76
2021/12/15 06:09:52;;;;;;;64.68;22.67;;;;;;;;;;5036730;28;20055;-75
2021/12/15 06:12:18;;;;;;;60.75;23.10;;;;;;;;;;5053422;28;20036;-74
2021/12/15 06:14:44;;;;;;;70.55;23.30;;;;;;;;;;5036428;28;20577;-76
2021/12/15 06:17:11;;;;;;;62.47;21.10;;;;;;;;;;5053261;28;20094;-76
2021/12/15 06:19:37;;;;;;;67.55;21.70;;;;;;;;;;5036431;28;20523;-76
2021/12/15 06:22:04;;;;;;;68.57;23.10;;;;;;;;;;5036655;28;20036;-76
2021/12/15 06:24:30;;;;;;;56.88;21.52;;;;;;;;;;5052712;28;20408;-76
2021/12/15 06:27:02;;;;;;;66.38;21.65;;;;;;;;;;5036307;28;20396;-76
2021/12/15 06:29:29;;;;;;;59.67;20.85;;;;;;;;;;5036338;28;20419;-76
2021/12/15 06:31:55;;;;;;;63.03;21.65;;;;;;;;;;5036823;28;20083;-74
2021/12/15 06:34:21;;;;;;;64.50;23.55;;;;;;;;;;5036350;28;20492;-76
2021/12/15 06:36:47;;;;;;;68.88;23.27;;;;;;;;;;5053012;28;20040;-76
2021/12/15 06:39:13;;;;;;;68.57;22.23;;;;;;;;;;5034218;28;20040;-76
2021/12/15 06:41:39;;;;;;;65.85;23.17;;;;;;;;;;5052544;28;20352;-76
2021/12/15 06:44:05;;;;;;;61.53;21.40;;;;;;;;;;5036136;28;20038;-75
2021/12/15 06:59:56;;;;;;;60.97;20.33;;;;;;;;;;5056307;28;20385;-76
2021/12/15 07:02:22;;;;;;;57.45;20.80;;;;;;;;;;5039983;28;20097;-76
2021/12/15 07:04:47;;;;;;;62.05;20.80;;;;;;;;;;5039363;28;20079;-76
2021/12/15 07:07:14;;;;;;;64.22;21.63;;;;;;;;;;5039153;28;20110;-75
2021/12/15 07:09:40;;;;;;;59.80;20.95;;;;;;;;;;5055787;28;20040;-76
2021/12/15 07:12:06;;;;;;;64.10;21.23;;;;;;;;;;5039477;28;20041;-74
2021/12/15 07:14:32;;;;;;;58.65;22.42;;;;;;;;;;5055871;28;20051;-76
2021/12/15 07:16:59;;;;;;;64.32;22.85;;;;;;;;;;5039012;28;20040;-76
2021/12/15 07:22:30;;;;;;;63.20;22.70;;;;;;;;;;5055799;28;20076;-74
2021/12/15 07:24:47;;;;;;;64.82;20.58;;;;;;;;;;5053869;28;20057;-75
2021/12/15 07:27:13;;;;;;;55.53;20.77;;;;;;;;;;5038946;28;20044;-76
2021/12/15 07:29:39;;;;;;;54.83;20.02;;;;;;;;;;5038842;28;20094;-75
2021/12/15 07:32:05;;;;;;;61.80;20.65;;;;;;;;;;5038741;28;20038;-75
2021/12/15 07:34:32;;;;;;;58.38;21.02;;;;;;;;;;5038895;28;20044;-73
2021/12/15 07:36:58;;;;;;;52.60;19.77;;;;;;;;;;5055504;28;20074;-76
2021/12/15 07:39:24;;;;;;;54.58;19.38;;;;;;;;;;5038894;28;20044;-74
2021/12/15 07:41:52;;;;;;;57.08;20.15;;;;;;;;;;5055313;28;20553;-76
2021/12/15 07:44:19;;;;;;;52.42;20.10;;;;;;;;;;5038433;28;20090;-76
2021/12/15 07:46:46;;;;;;;53.63;20.52;;;;;;;;;;5055224;28;20041;-75
2021/12/15 07:49:12;;;;;;;59.05;21.95;;;;;;;;;;5038332;28;20077;-76
2021/12/15 07:51:41;;;;;;;55.45;20.35;;;;;;;;;;5038358;28;20067;-75
2021/12/15 07:54:07;;;;;;;61.13;20.55;;;;;;;;;;5038555;28;20052;-75
2021/12/15 07:56:33;;;;;;;56.38;20.73;;;;;;;;;;5038454;28;20047;-75
2021/12/15 07:58:59;;;;;;;59.53;22.15;;;;;;;;;;5054895;28;20052;-75
2021/12/15 08:01:25;;;;;;;53.35;21.25;;;;;;;;;;5037434;28;20076;-75
2021/12/15 08:03:54;;;;;;;57.15;19.70;;;;;;;;;;5054878;28;20039;-76
2021/12/15 08:06:20;;;;;;;49.88;19.02;;;;;;;;;;5055060;28;20119;-73
2021/12/15 08:08:47;;;;;;;53.05;19.63;;;;;;;;;;5055262;28;20036;-76
2021/12/15 08:11:13;;;;;;;55.03;20.27;;;;;;;;;;5038095;28;20066;-75
2021/12/15 08:13:39;;;;;;;46.85;19.38;;;;;;;;;;5054933;28;20044;-75
2021/12/15 08:16:05;;;;;;;46.55;18.80;;;;;;;;;;5054808;28;20063;-75
2021/12/15 08:18:32;;;;;;;50.47;18.77;;;;;;;;;;5033921;28;20447;-75
2021/12/15 08:20:58;;;;;;;50.88;19.67;;;;;;;;;;5034403;28;20049;-74
2021/12/15 08:23:24;;;;;;;44.22;17.27;;;;;;;;;;5036564;28;20040;-76
2021/12/15 08:25:50;;;;;;;39.45;17.15;;;;;;;;;;5037306;28;20538;-75
2021/12/15 08:28:17;;;;;;;47.67;17.73;;;;;;;;;;5018433;28;20041;-75
2021/12/15 08:30:45;;;;;;;45.97;17.10;;;;;;;;;;5035374;28;20041;-75
2021/12/15 08:33:12;;;;;;;47.97;17.02;;;;;;;;;;5018569;28;20044;-75
2021/12/15 08:35:41;;;;;;;49.45;17.38;;;;;;;;;;5018198;28;20049;-76
2021/12/15 08:38:09;;;;;;;48.50;18.27;;;;;;;;;;5018145;28;20040;-75
2021/12/15 08:40:35;;;;;;;43.00;16.83;;;;;;;;;;5035171;28;20045;-76
2021/12/15 08:43:01;;;;;;;42.60;16.25;;;;;;;;;;5017819;28;20119;-75
2021/12/15 08:45:28;;;;;;;47.60;18.55;;;;;;;;;;5034229;28;20470;-75
2021/12/15 08:47:55;;;;;;;45.83;16.90;;;;;;;;;;5030748;28;20132;-76
2021/12/15 08:50:24;;;;;;;38.40;16.20;;;;;;;;;;5030930;28;20150;-76
2021/12/15 08:52:50;;;;;;;42.88;17.73;;;;;;;;;;5030374;28;20073;-76
2021/12/15 08:55:16;;;;;;;41.83;16.58;;;;;;;;;;5014412;28;20080;-76
2021/12/15 08:57:48;;;;;;;47.50;17.10;;;;;;;;;;5031028;28;20052;-74
2021/12/15 09:00:14;;;;;;;46.80;17.20;;;;;;;;;;5014682;28;20044;-75
2021/12/15 09:02:40;;;;;;;42.38;16.92;;;;;;;;;;5030577;28;20568;-76
2021/12/15 09:05:07;;;;;;;42.65;16.65;;;;;;;;;;5030118;28;20168;-75
2021/12/15 09:07:33;;;;;;;44.25;15.95;;;;;;;;;;5030907;28;20497;-73
2021/12/15 09:09:59;;;;;;;41.75;16.10;;;;;;;;;;5014185;28;20040;-75
2021/12/15 09:12:25;;;;;;;43.10;15.57;;;;;;;;;;5013861;28;20045;-75
2021/12/15 09:14:51;;;;;;;37.95;15.85;;;;;;;;;;5030595;28;20076;-76
2021/12/15 09:17:17;;;;;;;41.65;16.42;;;;;;;;;;5013641;28;20049;-76
2021/12/15 09:19:43;;;;;;;45.05;17.65;;;;;;;;;;5013767;28;20052;-75
2021/12/15 09:22:09;;;;;;;40.00;15.52;;;;;;;;;;5013957;28;20052;-75
2021/12/15 09:24:35;;;;;;;38.92;16.33;;;;;;;;;;5026839;28;20088;-76
2021/12/15 09:27:02;;;;;;;43.30;16.25;;;;;;;;;;5027240;28;20076;-75
2021/12/15 09:29:28;;;;;;;41.20;15.43;;;;;;;;;;5010083;28;20922;-76
2021/12/15 09:31:54;;;;;;;39.75;16.30;;;;;;;;;;5010357;28;20148;-76
2021/12/15 09:34:20;;;;;;;38.13;16.00;;;;;;;;;;5026579;28;20053;-76
2021/12/15 09:36:48;;;;;;;39.30;15.70;;;;;;;;;;5026684;28;20049;-76
2021/12/15 09:39:15;;;;;;;39.10;15.20;;;;;;;;;;5025481;28;20049;-75
2021/12/15 09:41:42;;;;;;;39.33;15.63;;;;;;;;;;5009704;28;20136;-76
2021/12/15 09:44:11;;;;;;;41.60;16.05;;;;;;;;;;5010004;28;20472;-75
2021/12/15 10:03:04;;;;;;;34.20;15.73;;;;;;;;;;5026441;28;20149;-75
2021/12/15 10:19:38;;;;;;;31.17;13.23;;;;;;;;;;5026271;28;20456;-75
2021/12/15 10:22:07;;;;;;;29.00;12.65;;;;;;;;;;5027336;28;20048;-75
2021/12/15 10:24:36;;;;;;;30.38;14.07;;;;;;;;;;5010772;28;20743;-75
2021/12/15 10:27:04;;;;;;;30.02;13.63;;;;;;;;;;5014177;28;20441;-75
2021/12/15 10:29:30;;;;;;;33.15;12.30;;;;;;;;;;5030593;28;20099;-76
2021/12/15 10:31:57;;;;;;;34.10;13.48;;;;;;;;;;5031228;28;20045;-76
2021/12/15 10:34:23;;;;;;;29.92;13.20;;;;;;;;;;5014764;28;20053;-76
2021/12/15 10:36:49;;;;;;;31.23;12.70;;;;;;;;;;5030529;28;20447;-75
2021/12/15 10:39:15;;;;;;;27.52;12.35;;;;;;;;;;5029839;28;20460;-75
2021/12/15 10:41:43;;;;;;;28.02;11.70;;;;;;;;;;5030563;28;20099;-76
2021/12/15 10:44:14;;;;;;;30.23;12.73;;;;;;;;;;5012922;28;20049;-75
2021/12/15 10:46:43;;;;;;;30.05;11.95;;;;;;;;;;5027907;28;20489;-76
2021/12/15 10:49:11;;;;;;;27.30;12.02;;;;;;;;;;5029658;28;20071;-75
2021/12/15 10:51:43;;;;;;;32.45;12.15;;;;;;;;;;5013002;28;20042;-76
2021/12/15 10:54:32;;;;;;;28.08;12.13;;;;;;;;;;5029696;28;20049;-76
2021/12/15 10:57:05;;;;;;;26.40;11.10;;;;;;;;;;5021056;28;20103;-77
2021/12/15 10:59:34;;;;;;;29.25;12.38;;;;;;;;;;5029490;28;20081;-76
2021/12/15 11:02:01;;;;;;;28.35;12.23;;;;;;;;;;5012807;28;20071;-75
2021/12/15 11:04:37;;;;;;;27.67;11.02;;;;;;;;;;5028865;28;20037;-76
2021/12/15 11:07:05;;;;;;;27.90;13.07;;;;;;;;;;5029512;28;20124;-76
2021/12/15 11:09:39;;;;;;;27.35;11.00;;;;;;;;;;5012898;28;20081;-77
2021/12/15 11:12:17;;;;;;;26.38;11.80;;;;;;;;;;5029238;28;20081;-76
2021/12/15 11:14:46;;;;;;;29.45;12.68;;;;;;;;;;5029097;28;20422;-75
2021/12/15 11:17:19;;;;;;;24.30;12.88;;;;;;;;;;5028541;28;20048;-75
2021/12/15 11:19:58;;;;;;;28.95;11.80;;;;;;;;;;5012647;28;20039;-76
2021/12/15 11:22:30;;;;;;;28.45;11.40;;;;;;;;;;5028931;28;20057;-75
2021/12/15 11:24:56;;;;;;;21.85;10.50;;;;;;;;;;5028595;28;20061;-75
2021/12/15 11:27:22;;;;;;;24.15;9.98;;;;;;;;;;5028690;28;20045;-75
2021/12/15 11:29:48;;;;;;;24.55;10.68;;;;;;;;;;5029978;28;20041;-76
2021/12/15 11:32:33;;;;;;;24.40;10.68;;;;;;;;;;5045706;28;20453;-75
2021/12/15 11:35:00;;;;;;;24.55;9.27;;;;;;;;;;5019917;28;20041;-75
2021/12/15 11:37:43;;;;;;;23.42;10.60;;;;;;;;;;5028702;28;20052;-75
2021/12/15 11:40:09;;;;;;;23.92;9.48;;;;;;;;;;5030221;28;20507;-75
2021/12/15 11:42:39;;;;;;;21.52;10.25;;;;;;;;;;5011676;28;20390;-75
2021/12/15 11:45:06;;;;;;;20.55;10.18;;;;;;;;;;5028488;28;20057;-76
2021/12/15 11:47:33;;;;;;;22.02;9.57;;;;;;;;;;5011864;28;20096;-76
2021/12/15 11:50:05;;;;;;;21.17;9.52;;;;;;;;;;5011819;28;20511;-76
2021/12/15 11:52:38;;;;;;;19.77;9.57;;;;;;;;;;5011778;28;20041;-75
2021/12/15 11:55:05;;;;;;;25.35;9.60;;;;;;;;;;5028368;28;20045;-76
2021/12/15 11:57:31;;;;;;;20.48;9.65;;;;;;;;;;5011635;28;20500;-76
2021/12/15 11:59:59;;;;;;;22.13;9.88;;;;;;;;;;5011570;28;20195;-76
2021/12/15 12:02:30;;;;;;;21.40;9.07;;;;;;;;;;5033153;28;20503;-76
2021/12/15 12:04:58;;;;;;;23.50;9.90;;;;;;;;;;5030948;28;20053;-75
2021/12/15 12:07:30;;;;;;;24.23;9.23;;;;;;;;;;5031459;28;20119;-75
2021/12/15 12:09:56;;;;;;;17.20;9.07;;;;;;;;;;5047865;28;20179;-77
2021/12/15 12:12:27;;;;;;;20.40;9.13;;;;;;;;;;5030989;28;20127;-75
2021/12/15 12:14:53;;;;;;;20.73;7.80;;;;;;;;;;5031602;28;20592;-76
2021/12/15 12:17:19;;;;;;;15.75;7.72;;;;;;;;;;5016288;28;20050;-75
2021/12/15 12:19:59;;;;;;;19.10;8.80;;;;;;;;;;5011524;28;20422;-76
2021/12/15 12:22:29;;;;;;;16.42;7.15;;;;;;;;;;5011254;28;20075;-76
2021/12/15 12:24:56;;;;;;;18.20;7.25;;;;;;;;;;5010827;28;20409;-75
2021/12/15 12:27:23;;;;;;;14.68;6.63;;;;;;;;;;5027459;28;20045;-75
2021/12/15 12:29:50;;;;;;;14.30;7.30;;;;;;;;;;5011030;28;20132;-75
2021/12/15 12:32:16;;;;;;;13.55;6.53;;;;;;;;;;5033546;28;20131;-75
2021/12/15 12:34:42;;;;;;;12.20;5.63;;;;;;;;;;5028640;28;20174;-75
2021/12/15 12:37:11;;;;;;;13.48;6.68;;;;;;;;;;5030017;28;20045;-75
2021/12/15 12:39:38;;;;;;;12.75;6.00;;;;;;;;;;5036027;28;20041;-76
2021/12/15 12:42:05;;;;;;;15.30;5.85;;;;;;;;;;5047653;28;20053;-76
2021/12/15 12:44:42;;;;;;;11.38;5.28;;;;;;;;;;5030746;28;20066;-76
2021/12/15 12:47:26;;;;;;;9.10;5.50;;;;;;;;;;5030510;28;20484;-77
2021/12/15 13:00:48;;;;;;;10.05;5.50;;;;;;;;;;5046851;28;20051;-75
2021/12/15 13:03:18;;;;;;;17.65;6.85;;;;;;;;;;5030265;28;20041;-75
2021/12/15 13:05:44;;;;;;;15.25;6.20;;;;;;;;;;5030061;28;20099;-79
2021/12/15 13:08:12;;;;;;;12.38;5.95;;;;;;;;;;5045974;28;20135;-75
2021/12/15 13:10:58;;;;;;;14.98;6.25;;;;;;;;;;5046891;28;20041;-75
2021/12/15 13:13:26;;;;;;;14.75;5.82;;;;;;;;;;5033401;28;20045;-76
2021/12/15 13:16:01;;;;;;;12.80;5.35;;;;;;;;;;5046374;28;20246;-75
2021/12/15 13:18:27;;;;;;;12.45;4.85;;;;;;;;;;5046751;28;20037;-75
2021/12/15 13:20:55;;;;;;;10.10;5.13;;;;;;;;;;5030024;28;20082;-75
2021/12/15 13:23:38;;;;;;;9.98;4.63;;;;;;;;;;5032166;28;20044;-75
2021/12/15 13:28:50;;;;;;;9.55;4.00;;;;;;;;;;5050240;28;20041;-75
2021/12/15 13:31:25;;;;;;;7.80;3.97;;;;;;;;;;5034486;28;20121;-76
2021/12/15 13:33:58;;;;;;;8.65;3.70;;;;;;;;;;5035129;28;20040;-74
2021/12/15 13:36:41;;;;;;;7.70;2.90;;;;;;;;;;5051531;28;20050;-75
2021/12/15 13:39:09;;;;;;;7.45;3.53;;;;;;;;;;5051138;28;20059;-74
2021/12/15 13:44:04;;;;;;;7.38;2.92;;;;;;;;;;5049951;28;20766;-76
2021/12/15 13:46:36;;;;;;;8.57;3.65;;;;;;;;;;5033463;28;20040;-74
2021/12/15 13:49:18;;;;;;;7.88;2.88;;;;;;;;;;5049748;28;20037;-76
2021/12/15 13:51:56;;;;;;;7.53;2.70;;;;;;;;;;5049812;28;20370;-76
2021/12/15 13:54:37;;;;;;;7.53;2.70;;;;;;;;;;5020850;28;20055;-75
2021/12/15 13:57:03;;;;;;;6.22;2.75;;;;;;;;;;5029586;28;20053;-77
2021/12/15 13:59:33;;;;;;;10.10;2.70;;;;;;;;;;5013296;28;20051;-75
2021/12/15 14:02:10;;;;;;;4.30;2.25;;;;;;;;;;5017422;28;20469;-76
2021/12/15 14:04:42;;;;;;;9.02;2.38;;;;;;;;;;5017434;28;20056;-75
2021/12/15 14:07:47;;;;;;;5.43;2.53;;;;;;;;;;5033850;28;20080;-74
2021/12/15 14:10:13;;;;;;;7.90;2.60;;;;;;;;;;4934784;29;20043;-75
2021/12/15 14:12:48;;;;;;;5.78;2.47;;;;;;;;;;4932892;29;20050;-75
2021/12/15 14:15:33;;;;;;;6.38;2.40;;;;;;;;;;4971067;28;20064;-76
2021/12/15 14:18:04;;;;;;;4.78;2.30;;;;;;;;;;5016991;28;20048;-75
2021/12/15 14:20:31;;;;;;;5.07;2.20;;;;;;;;;;5033516;28;20346;-76
2021/12/15 14:22:58;;;;;;;7.57;2.67;;;;;;;;;;5016764;28;20412;-76
2021/12/15 14:25:24;;;;;;;6.13;2.45;;;;;;;;;;5032950;28;20091;-75
2021/12/15 14:27:50;;;;;;;6.70;2.85;;;;;;;;;;5016605;28;20048;-75
2021/12/15 14:30:17;;;;;;;6.75;2.20;;;;;;;;;;5033467;28;20110;-75
2021/12/15 14:32:44;;;;;;;6.03;3.05;;;;;;;;;;5016620;28;20045;-74
2021/12/15 14:35:24;;;;;;;8.20;2.85;;;;;;;;;;5016894;28;20541;-75
2021/12/15 14:37:50;;;;;;;5.50;2.17;;;;;;;;;;5016699;28;20048;-75
2021/12/15 14:40:16;;;;;;;4.55;2.53;;;;;;;;;;5016142;28;20745;-75
2021/12/15 14:42:42;;;;;;;7.88;2.80;;;;;;;;;;5016252;28;20049;-73
2021/12/15 14:45:09;;;;;;;4.75;2.85;;;;;;;;;;5032758;28;20037;-74
2021/12/15 14:47:37;;;;;;;7.22;2.50;;;;;;;;;;5017105;28;20041;-74
2021/12/15 14:50:11;;;;;;;5.93;3.15;;;;;;;;;;5035757;28;20048;-74
2021/12/15 14:52:39;;;;;;;5.43;2.72;;;;;;;;;;5036228;28;20044;-75
2021/12/15 14:55:07;;;;;;;5.45;2.33;;;;;;;;;;5019591;28;20040;-75
2021/12/15 14:57:33;;;;;;;7.35;2.88;;;;;;;;;;5019621;28;20435;-76
2021/12/15 14:59:59;;;;;;;4.55;2.78;;;;;;;;;;5019840;28;20392;-75
2021/12/15 15:02:27;;;;;;;5.60;2.33;;;;;;;;;;5036359;28;20056;-75
2021/12/15 15:04:55;;;;;;;7.10;2.88;;;;;;;;;;5019207;28;20055;-75
2021/12/15 15:07:22;;;;;;;7.43;2.85;;;;;;;;;;5035987;28;20044;-75
2021/12/15 15:09:50;;;;;;;10.45;2.90;;;;;;;;;;5035892;28;20397;-75
2021/12/15 15:12:19;;;;;;;8.82;3.33;;;;;;;;;;5018780;28;20076;-76
2021/12/15 15:14:47;;;;;;;4.90;2.17;;;;;;;;;;5036078;28;20060;-75
2021/12/15 15:17:26;;;;;;;7.32;2.22;;;;;;;;;;5019403;28;20049;-75
2021/12/15 15:19:53;;;;;;;6.32;2.55;;;;;;;;;;5019569;28;20393;-75
2021/12/15 15:22:24;;;;;;;4.80;2.40;;;;;;;;;;5035771;28;20047;-75
2021/12/15 15:24:51;;;;;;;7.70;2.38;;;;;;;;;;5019073;28;20053;-75
2021/12/15 15:27:17;;;;;;;3.35;2.25;;;;;;;;;;5035502;28;20094;-75
2021/12/15 15:29:45;;;;;;;3.70;2.50;;;;;;;;;;5019077;28;20037;-77
2021/12/15 15:32:17;;;;;;;4.65;2.47;;;;;;;;;;5019198;28;20107;-77
2021/12/15 15:34:44;;;;;;;3.80;2.28;;;;;;;;;;5019094;28;20048;-76
2021/12/15 15:37:12;;;;;;;8.63;2.60;;;;;;;;;;5035420;28;20135;-74
2021/12/15 15:39:38;;;;;;;5.75;3.28;;;;;;;;;;5018841;28;20044;-75
2021/12/15 15:42:04;;;;;;;5.30;2.60;;;;;;;;;;5018826;28;20090;-75
2021/12/15 15:44:39;;;;;;;5.88;2.30;;;;;;;;;;5035196;28;20067;-76
2021/12/15 15:47:13;;;;;;;4.20;3.42;;;;;;;;;;5035246;28;20139;-76
2021/12/15 15:49:46;;;;;;;3.35;2.22;;;;;;;;;;5035111;28;20088;-75
2021/12/15 15:52:12;;;;;;;2.08;1.67;;;;;;;;;;5035426;28;20087;-75
2021/12/15 15:54:38;;;;;;;4.20;1.85;;;;;;;;;;5035070;28;20052;-75
2021/12/15 15:57:06;;;;;;;5.38;1.90;;;;;;;;;;5018713;28;20037;-75
2021/12/15 15:59:32;;;;;;;2.75;1.75;;;;;;;;;;5018382;28;20076;-75
2021/12/15 16:02:00;;;;;;;3.90;1.85;;;;;;;;;;5018787;28;20076;-75
2021/12/15 16:04:27;;;;;;;4.53;1.55;;;;;;;;;;5018365;28;20056;-76